createdAt,value
2018-06-18T00:00:25.053Z,17.20
2018-06-18T00:02:55.713Z,17.20
2018-06-18T00:05:25.360Z,17.20
2018-06-18T00:07:54.863Z,17.20
2018-06-18T00:10:24.031Z,17.10
2018-06-18T00:12:54.888Z,17.10
2018-06-18T00:15:24.178Z,17.20
2018-06-18T00:17:53.742Z,17.20
2018-06-18T00:20:23.190Z,17.20
2018-06-18T00:22:52.646Z,17.10
2018-06-18T00:25:21.844Z,17.10
2018-06-18T00:28:08.509Z,17.10
2018-06-18T00:30:38.687Z,17.10
2018-06-18T00:33:08.383Z,17.10
2018-06-18T00:35:37.913Z,17.10
2018-06-18T00:38:07.340Z,17.10
2018-06-18T00:40:36.556Z,17.20
2018-06-18T00:45:35.010Z,17.20
2018-06-18T00:48:04.560Z,17.20
2018-06-18T00:50:34.563Z,17.20
2018-06-18T00:53:03.818Z,17.20
2018-06-18T00:55:43.822Z,17.30
2018-06-18T00:58:12.784Z,17.30
2018-06-18T01:00:42.566Z,17.30
2018-06-18T01:03:11.977Z,17.30
2018-06-18T01:05:41.014Z,17.30
2018-06-18T01:08:10.470Z,17.30
2018-06-18T01:10:39.863Z,17.30
2018-06-18T01:13:09.654Z,17.30
2018-06-18T01:18:10.133Z,17.40
2018-06-18T01:20:42.808Z,17.30
2018-06-18T01:25:21.797Z,17.30
2018-06-18T01:27:50.837Z,17.30
2018-06-18T01:30:21.968Z,17.20
2018-06-18T01:32:58.568Z,17.20
2018-06-18T01:35:31.743Z,17.20
2018-06-18T01:38:04.370Z,17.10
2018-06-18T01:40:34.624Z,17.00
2018-06-18T01:43:10.649Z,17.00
2018-06-18T01:45:48.685Z,17.00
2018-06-18T01:48:20.119Z,16.90
2018-06-18T01:50:53.999Z,16.90
2018-06-18T01:53:23.470Z,17.00
2018-06-18T01:58:25.894Z,16.90
2018-06-18T02:00:55.176Z,16.90
2018-06-18T02:03:27.720Z,17.00
2018-06-18T02:05:57.048Z,17.00
2018-06-18T02:08:30.971Z,17.00
2018-06-18T02:11:02.197Z,17.00
2018-06-18T02:13:36.956Z,17.00
2018-06-18T02:16:06.545Z,17.00
2018-06-18T02:18:51.576Z,17.00
2018-06-18T02:21:26.962Z,17.00
2018-06-18T02:23:57.450Z,17.10
2018-06-18T02:26:28.892Z,17.10
2018-06-18T02:29:04.236Z,17.10
2018-06-18T02:31:38.764Z,17.10
2018-06-18T02:34:13.185Z,17.10
2018-06-18T02:36:47.826Z,17.00
2018-06-18T02:39:20.848Z,17.10
2018-06-18T02:41:51.734Z,17.10
2018-06-18T02:44:22.138Z,17.10
2018-06-18T02:46:51.364Z,17.00
2018-06-18T02:51:51.682Z,16.90
2018-06-18T02:54:21.687Z,17.00
2018-06-18T02:56:56.016Z,17.00
2018-06-18T02:59:24.999Z,17.00
2018-06-18T03:01:57.311Z,17.00
2018-06-18T03:04:28.731Z,17.00
2018-06-18T03:06:57.722Z,17.00
2018-06-18T03:09:27.880Z,17.00
2018-06-18T03:11:57.130Z,17.00
2018-06-18T03:14:26.296Z,17.00
2018-06-18T03:16:55.570Z,17.00
2018-06-18T03:19:29.672Z,17.00
2018-06-18T03:22:04.298Z,16.90
2018-06-18T03:24:38.422Z,16.90
2018-06-18T03:27:14.229Z,16.90
2018-06-18T03:29:43.339Z,16.90
2018-06-18T03:32:14.631Z,16.90
2018-06-18T03:34:44.895Z,16.90
2018-06-18T03:37:17.174Z,16.90
2018-06-18T03:39:46.723Z,16.90
2018-06-18T03:42:15.975Z,17.00
2018-06-18T03:44:54.004Z,17.00
2018-06-18T03:47:28.550Z,16.90
2018-06-18T03:49:57.714Z,17.00
2018-06-18T03:52:27.565Z,17.00
2018-06-18T03:54:59.426Z,17.10
2018-06-18T03:57:29.561Z,17.10
2018-06-18T03:59:59.188Z,17.00
2018-06-18T04:02:37.494Z,17.10
2018-06-18T04:05:12.117Z,17.10
2018-06-18T04:07:46.873Z,17.10
2018-06-18T04:15:21.324Z,17.10
2018-06-18T04:17:51.223Z,17.10
2018-06-18T04:20:21.642Z,17.20
2018-06-18T04:22:50.891Z,17.10
2018-06-18T04:25:20.840Z,17.10
2018-06-18T04:27:51.329Z,17.20
2018-06-18T04:30:21.741Z,17.20
2018-06-18T04:32:51.027Z,17.20
2018-06-18T04:35:20.770Z,17.20
2018-06-18T04:40:21.416Z,17.10
2018-06-18T04:42:57.266Z,17.10
2018-06-18T04:45:32.800Z,17.20
2018-06-18T04:51:08.630Z,17.30
2018-06-18T04:53:38.530Z,17.30
2018-06-18T04:56:24.809Z,17.40
2018-06-18T04:59:09.787Z,17.40
2018-06-18T05:01:48.513Z,17.40
2018-06-18T05:04:20.362Z,17.40
2018-06-18T05:06:50.969Z,17.40
2018-06-18T05:09:29.132Z,17.40
2018-06-18T05:11:59.655Z,17.50
2018-06-18T05:14:33.900Z,17.60
2018-06-18T05:17:02.979Z,17.60
2018-06-18T05:22:24.215Z,17.70
2018-06-18T05:25:05.990Z,17.80
2018-06-18T05:27:39.062Z,17.80
2018-06-18T05:30:12.823Z,17.90
2018-06-18T05:32:42.552Z,18.00
2018-06-18T05:35:13.464Z,17.90
2018-06-18T05:37:52.677Z,17.90
2018-06-18T05:40:36.279Z,17.90
2018-06-18T05:43:16.870Z,18.00
2018-06-18T05:45:48.549Z,18.10
2018-06-18T05:48:19.552Z,18.20
2018-06-18T05:50:50.474Z,18.40
2018-06-18T05:53:20.402Z,18.50
2018-06-18T05:55:55.302Z,18.60
2018-06-18T05:58:25.784Z,18.60
2018-06-18T06:01:00.430Z,18.50
2018-06-18T06:03:35.861Z,18.50
2018-06-18T06:06:08.306Z,18.40
2018-06-18T06:08:42.119Z,18.40
2018-06-18T06:11:11.441Z,18.40
2018-06-18T06:13:40.966Z,18.50
2018-06-18T06:16:10.412Z,18.70
2018-06-18T06:18:40.031Z,18.70
2018-06-18T06:21:11.349Z,18.90
2018-06-18T06:23:40.649Z,19.00
2018-06-18T06:26:09.826Z,19.10
2018-06-18T06:28:40.602Z,19.20
2018-06-18T06:31:09.923Z,19.20
2018-06-18T06:33:39.260Z,19.40
2018-06-18T06:36:09.591Z,19.60
2018-06-18T06:38:39.109Z,19.70
2018-06-18T06:41:09.873Z,19.90
2018-06-18T06:43:39.224Z,20.00
2018-06-18T06:46:08.288Z,20.20
2018-06-18T06:48:37.806Z,20.70
2018-06-18T06:51:06.975Z,21.00
2018-06-18T06:53:36.308Z,21.00
2018-06-18T06:56:05.633Z,20.80
2018-06-18T06:58:35.110Z,20.70
2018-06-18T07:01:10.689Z,20.40
2018-06-18T07:03:43.990Z,20.30
2018-06-18T07:06:13.238Z,20.40
2018-06-18T07:08:42.533Z,20.40
2018-06-18T07:11:17.704Z,20.10
2018-06-18T07:13:47.320Z,20.10
2018-06-18T07:16:16.742Z,20.00
2018-06-18T07:18:46.485Z,20.10
2018-06-18T07:21:16.398Z,20.10
2018-06-18T07:23:45.868Z,20.00
2018-06-18T07:26:15.143Z,19.90
2018-06-18T07:28:44.560Z,19.80
2018-06-18T07:31:14.333Z,19.80
2018-06-18T07:33:43.573Z,19.70
2018-06-18T07:36:12.910Z,19.70
2018-06-18T07:38:49.005Z,19.60
2018-06-18T07:41:19.734Z,19.60
2018-06-18T07:43:49.128Z,19.60
2018-06-18T07:46:18.499Z,19.70
2018-06-18T07:48:47.991Z,19.70
2018-06-18T07:51:17.229Z,19.80
2018-06-18T07:53:46.644Z,19.90
2018-06-18T07:56:16.129Z,20.10
2018-06-18T07:58:45.397Z,20.00
2018-06-18T08:01:14.901Z,20.00
2018-06-18T08:03:44.316Z,19.90
2018-06-18T08:06:13.706Z,19.90
2018-06-18T08:08:43.198Z,20.00
2018-06-18T08:11:12.514Z,20.00
2018-06-18T08:13:42.203Z,20.00
2018-06-18T08:16:14.130Z,20.10
2018-06-18T08:18:43.860Z,20.20
2018-06-18T08:21:13.281Z,20.30
2018-06-18T08:23:48.563Z,20.30
2018-06-18T08:26:45.262Z,20.40
2018-06-18T08:29:15.943Z,20.50
2018-06-18T08:31:45.353Z,20.50
2018-06-18T08:34:14.832Z,20.50
2018-06-18T08:36:45.410Z,20.60
2018-06-18T08:39:15.192Z,20.80
2018-06-18T08:41:44.590Z,20.70
2018-06-18T08:44:14.202Z,20.80
2018-06-18T08:46:43.704Z,20.80
2018-06-18T08:49:13.201Z,21.00
2018-06-18T08:51:47.734Z,21.20
2018-06-18T08:54:22.570Z,21.40
2018-06-18T08:56:57.284Z,21.70
2018-06-18T08:59:34.072Z,22.00
2018-06-18T09:02:03.923Z,22.00
2018-06-18T09:04:40.159Z,22.20
2018-06-18T09:07:15.996Z,22.80
2018-06-18T09:09:46.103Z,23.20
2018-06-18T09:12:15.366Z,23.10
2018-06-18T09:14:47.791Z,23.50
2018-06-18T09:17:17.573Z,23.50
2018-06-18T09:19:47.347Z,23.70
2018-06-18T09:22:44.702Z,23.40
2018-06-18T09:28:44.184Z,22.90
2018-06-18T09:31:15.774Z,22.40
2018-06-18T09:33:45.641Z,22.30
2018-06-18T09:36:16.387Z,22.20
2018-06-18T09:38:48.174Z,22.30
2018-06-18T09:41:19.435Z,22.30
2018-06-18T09:43:50.737Z,22.20
2018-06-18T09:46:23.376Z,22.20
2018-06-18T09:48:59.495Z,22.40
2018-06-18T09:51:36.336Z,22.70
2018-06-18T09:54:19.301Z,22.90
2018-06-18T09:56:55.668Z,23.00
2018-06-18T09:59:41.908Z,22.90
2018-06-18T10:02:12.598Z,22.90
2018-06-18T10:04:43.156Z,22.70
2018-06-18T10:07:17.718Z,22.60
2018-06-18T10:09:52.917Z,22.60
2018-06-18T10:12:24.685Z,22.50
2018-06-18T10:14:56.180Z,22.40
2018-06-18T10:17:38.582Z,22.40
2018-06-18T10:20:15.216Z,22.40
2018-06-18T10:22:58.072Z,22.40
2018-06-18T10:25:28.723Z,22.40
2018-06-18T10:28:00.226Z,22.60
2018-06-18T10:30:35.659Z,22.70
2018-06-18T10:33:17.627Z,23.00
2018-06-18T10:35:56.697Z,24.00
2018-06-18T10:38:37.109Z,25.50
2018-06-18T10:43:26.097Z,26.50
2018-06-18T10:46:00.037Z,27.00
2018-06-18T10:48:32.543Z,27.90
2018-06-18T10:51:29.545Z,27.50
2018-06-18T10:54:09.312Z,26.50
2018-06-18T11:03:20.768Z,23.70
2018-06-18T11:05:56.365Z,23.60
2018-06-18T11:10:59.467Z,23.60
2018-06-18T11:13:40.805Z,23.70
2018-06-18T11:20:03.398Z,23.50
2018-06-18T11:23:47.365Z,23.40
2018-06-18T11:26:24.891Z,23.40
2018-06-18T11:28:58.967Z,23.80
2018-06-18T11:32:03.022Z,23.90
2018-06-18T11:34:38.045Z,23.70
2018-06-18T11:37:09.692Z,23.50
2018-06-18T11:39:40.738Z,23.50
2018-06-18T11:42:13.131Z,23.50
2018-06-18T11:51:16.813Z,23.50
2018-06-18T11:53:47.550Z,23.40
2018-06-18T11:56:18.347Z,23.30
2018-06-18T11:58:53.285Z,23.10
2018-06-18T12:01:28.954Z,23.00
2018-06-18T12:04:04.905Z,23.20
2018-06-18T12:08:45.814Z,23.20
2018-06-18T12:11:15.859Z,23.30
2018-06-18T12:13:46.779Z,23.40
2018-06-18T12:23:01.516Z,23.30
2018-06-18T12:25:33.532Z,23.20
2018-06-18T12:28:04.752Z,23.20
2018-06-18T12:33:06.686Z,23.30
2018-06-18T12:35:39.362Z,23.30
2018-06-18T12:38:11.942Z,23.40
2018-06-18T12:43:13.568Z,23.10
2018-06-18T12:45:51.071Z,23.10
2018-06-18T12:48:32.745Z,22.90
2018-06-18T12:51:18.626Z,22.50
2018-06-18T12:53:53.573Z,22.10
2018-06-18T12:56:28.211Z,22.30
2018-06-18T12:58:59.467Z,22.20
2018-06-18T13:01:31.778Z,22.30
2018-06-18T13:06:33.928Z,22.70
2018-06-18T13:09:04.634Z,23.20
2018-06-18T13:11:36.693Z,23.40
2018-06-18T13:14:07.774Z,23.50
2018-06-18T13:16:39.893Z,23.70
2018-06-18T13:19:09.693Z,24.20
2018-06-18T13:21:41.381Z,24.50
2018-06-18T13:24:14.346Z,24.50
2018-06-18T13:26:45.118Z,24.70
2018-06-18T13:29:16.560Z,24.80
2018-06-18T13:31:49.369Z,24.60
2018-06-18T13:36:58.925Z,23.90
2018-06-18T13:39:38.035Z,23.90
2018-06-18T13:42:16.443Z,23.90
2018-06-18T13:44:58.613Z,23.60
2018-06-18T13:47:43.498Z,23.30
2018-06-18T13:50:15.314Z,22.90
2018-06-18T13:52:48.687Z,22.50
2018-06-18T13:55:20.782Z,22.40
2018-06-18T13:57:59.691Z,22.50
2018-06-18T14:03:27.011Z,22.70
2018-06-18T14:06:02.486Z,22.80
2018-06-18T14:08:32.144Z,22.80
2018-06-18T14:11:02.432Z,22.80
2018-06-18T14:13:34.779Z,22.70
2018-06-18T14:16:04.932Z,22.80
2018-06-18T14:18:37.301Z,22.70
2018-06-18T14:21:11.761Z,22.70
2018-06-18T14:23:43.217Z,22.80
2018-06-18T14:26:13.834Z,22.90
2018-06-18T14:29:31.641Z,22.90
2018-06-18T14:32:17.614Z,23.10
2018-06-18T14:34:52.737Z,23.30
2018-06-18T14:37:28.407Z,23.30
2018-06-18T14:40:04.686Z,23.20
2018-06-18T14:45:13.840Z,23.50
2018-06-18T14:47:52.412Z,23.60
2018-06-18T14:50:22.633Z,23.60
2018-06-18T14:52:54.220Z,23.60
2018-06-18T14:55:24.940Z,23.60
2018-06-18T14:57:58.240Z,23.70
2018-06-18T15:00:37.793Z,23.80
2018-06-18T15:03:10.053Z,23.90
2018-06-18T15:05:45.560Z,24.10
2018-06-18T15:08:17.189Z,24.20
2018-06-18T15:10:52.119Z,24.10
2018-06-18T15:13:21.628Z,24.00
2018-06-18T15:16:02.932Z,24.00
2018-06-18T15:18:32.631Z,24.30
2018-06-18T15:21:05.412Z,24.30
2018-06-18T15:23:35.497Z,24.30
2018-06-18T15:26:07.710Z,24.10
2018-06-18T15:28:39.660Z,24.10
2018-06-18T15:31:15.261Z,24.20
2018-06-18T15:33:47.922Z,24.10
2018-06-18T15:36:17.676Z,24.20
2018-06-18T15:38:50.225Z,24.20
2018-06-18T15:41:20.787Z,24.30
2018-06-18T15:43:58.147Z,24.40
2018-06-18T15:46:28.013Z,24.50
2018-06-18T15:49:05.278Z,24.50
2018-06-18T15:51:36.775Z,24.40
2018-06-18T15:54:06.882Z,24.10
2018-06-18T15:56:36.975Z,23.80
2018-06-18T15:59:09.877Z,23.60
2018-06-18T16:01:41.745Z,23.50
2018-06-18T16:04:16.790Z,23.60
2018-06-18T16:06:47.208Z,23.70
2018-06-18T16:09:48.658Z,23.80
2018-06-18T16:12:30.508Z,23.90
2018-06-18T16:15:01.793Z,24.00
2018-06-18T16:17:43.164Z,24.00
2018-06-18T16:20:15.250Z,23.90
2018-06-18T16:22:53.391Z,23.80
2018-06-18T16:25:26.841Z,23.80
2018-06-18T16:28:00.430Z,23.90
2018-06-18T16:30:34.549Z,24.00
2018-06-18T16:33:07.733Z,24.10
2018-06-18T16:35:59.885Z,24.30
2018-06-18T16:38:33.505Z,24.40
2018-06-18T16:41:16.172Z,24.50
2018-06-18T16:43:51.761Z,24.50
2018-06-18T16:46:21.762Z,24.50
2018-06-18T16:48:55.721Z,24.50
2018-06-18T16:51:27.132Z,24.30
2018-06-18T16:54:02.779Z,24.30
2018-06-18T16:56:34.385Z,24.10
2018-06-18T16:59:10.721Z,24.00
2018-06-18T17:01:41.611Z,23.80
2018-06-18T17:04:13.077Z,23.70
2018-06-18T17:06:43.125Z,23.80
2018-06-18T17:09:13.367Z,23.80
2018-06-18T17:11:46.463Z,23.90
2018-06-18T17:14:31.418Z,23.90
2018-06-18T17:17:14.633Z,24.00
2018-06-18T17:19:48.352Z,23.80
2018-06-18T17:24:52.656Z,23.70
2018-06-18T17:27:33.093Z,23.80
2018-06-18T17:30:04.247Z,23.90
2018-06-18T17:32:34.446Z,24.00
2018-06-18T17:35:10.397Z,24.00
2018-06-18T17:37:39.940Z,23.80
2018-06-18T17:40:12.556Z,23.60
2018-06-18T17:42:43.668Z,23.50
2018-06-18T17:45:14.970Z,23.40
2018-06-18T17:47:47.634Z,23.40
2018-06-18T17:50:19.857Z,23.40
2018-06-18T17:52:50.418Z,23.30
2018-06-18T17:55:22.959Z,23.30
2018-06-18T17:58:02.094Z,23.20
2018-06-18T18:00:43.940Z,23.20
2018-06-18T18:03:13.725Z,23.20
2018-06-18T18:05:43.806Z,23.20
2018-06-18T18:08:13.656Z,23.30
2018-06-18T18:10:43.573Z,23.30
2018-06-18T18:13:17.014Z,23.20
2018-06-18T18:15:50.046Z,23.20
2018-06-18T18:18:20.743Z,23.30
2018-06-18T18:20:53.955Z,23.40
2018-06-18T18:23:24.258Z,23.40
2018-06-18T18:25:58.330Z,23.40
2018-06-18T18:28:45.036Z,23.30
2018-06-18T18:31:29.715Z,23.30
2018-06-18T18:34:00.953Z,23.30
2018-06-18T18:36:31.677Z,23.30
2018-06-18T18:39:01.808Z,23.30
2018-06-18T18:41:33.274Z,23.20
2018-06-18T18:44:02.910Z,23.10
2018-06-18T18:46:33.544Z,23.10
2018-06-18T18:49:05.557Z,23.10
2018-06-18T18:51:35.695Z,23.00
2018-06-18T18:54:06.598Z,23.00
2018-06-18T18:56:53.022Z,23.00
2018-06-18T18:59:30.452Z,22.90
2018-06-18T19:02:02.020Z,22.70
2018-06-18T19:04:40.469Z,22.60
2018-06-18T19:07:21.533Z,22.60
2018-06-18T19:10:36.512Z,22.60
2018-06-18T19:13:11.631Z,22.50
2018-06-18T19:15:46.980Z,22.40
2018-06-18T19:18:17.708Z,22.40
2018-06-18T19:21:00.469Z,22.30
2018-06-18T19:23:39.151Z,22.20
2018-06-18T19:26:10.177Z,22.30
2018-06-18T19:28:41.363Z,22.20
2018-06-18T19:31:29.673Z,22.20
2018-06-18T19:34:08.308Z,22.20
2018-06-18T19:36:39.228Z,22.30
2018-06-18T19:39:10.702Z,22.20
2018-06-18T19:41:40.347Z,22.20
2018-06-18T19:44:12.118Z,22.20
2018-06-18T19:47:49.289Z,22.30
2018-06-18T19:50:27.739Z,22.30
2018-06-18T19:52:57.717Z,22.40
2018-06-18T19:55:30.415Z,22.40
2018-06-18T19:58:02.654Z,22.40
2018-06-18T20:00:39.009Z,22.40
2018-06-18T20:03:12.916Z,22.50
2018-06-18T20:05:47.326Z,22.50
2018-06-18T20:08:31.488Z,22.50
2018-06-18T20:11:07.302Z,22.50
2018-06-18T20:13:43.725Z,22.40
2018-06-18T20:16:14.623Z,22.30
2018-06-18T20:18:49.528Z,22.40
2018-06-18T20:21:19.803Z,22.20
2018-06-18T20:23:54.565Z,22.20
2018-06-18T20:26:29.987Z,22.10
2018-06-18T20:29:00.925Z,22.20
2018-06-18T20:31:35.549Z,22.10
2018-06-18T20:34:11.723Z,21.90
2018-06-18T20:36:42.171Z,21.80
2018-06-18T20:39:19.549Z,21.70
2018-06-18T20:41:50.496Z,21.60
2018-06-18T20:44:29.290Z,21.50
2018-06-18T20:46:59.481Z,21.50
2018-06-18T20:49:31.825Z,21.40
2018-06-18T20:52:03.059Z,21.40
2018-06-18T20:54:37.851Z,21.20
2018-06-18T20:57:18.417Z,21.20
2018-06-18T21:03:11.804Z,21.10
2018-06-18T21:05:45.493Z,21.00
2018-06-18T21:08:18.627Z,21.00
2018-06-18T21:10:53.709Z,20.90
2018-06-18T21:13:27.074Z,20.80
2018-06-18T21:15:59.431Z,20.80
2018-06-18T21:18:34.425Z,20.70
2018-06-18T21:21:10.878Z,20.70
2018-06-18T21:23:48.617Z,20.70
2018-06-18T21:26:19.241Z,20.50
2018-06-18T21:28:49.899Z,20.40
2018-06-18T21:31:20.509Z,20.30
2018-06-18T21:33:57.372Z,20.30
2018-06-18T21:36:28.708Z,20.40
2018-06-18T21:39:01.154Z,20.30
2018-06-18T21:41:32.678Z,20.20
2018-06-18T21:44:06.210Z,20.20
2018-06-18T21:46:42.338Z,20.20
2018-06-18T22:04:28.289Z,20.00
2018-06-18T22:07:00.215Z,20.10
2018-06-18T22:10:40.194Z,20.00
2018-06-18T22:20:45.566Z,19.80
2018-06-18T22:30:56.980Z,19.70
2018-06-18T22:33:28.759Z,19.70
2018-06-18T22:36:10.597Z,19.70
2018-06-18T22:45:18.050Z,19.60
2018-06-18T22:48:19.857Z,19.60
2018-06-18T22:50:57.384Z,19.50
2018-06-18T22:53:28.829Z,19.40
2018-06-18T22:56:01.594Z,19.30
2018-06-18T22:58:34.597Z,19.30
2018-06-18T23:08:07.244Z,19.10
2018-06-18T23:10:41.965Z,19.00
2018-06-18T23:13:13.655Z,18.90
2018-06-18T23:16:07.854Z,18.90
2018-06-18T23:22:00.398Z,18.80
2018-06-18T23:24:46.444Z,18.70
2018-06-18T23:27:31.621Z,18.70
2018-06-18T23:33:26.847Z,18.60
2018-06-18T23:35:59.755Z,18.60
2018-06-18T23:38:35.157Z,18.50
2018-06-18T23:41:06.822Z,18.50
2018-06-18T23:55:48.286Z,18.30
2018-06-18T23:58:24.357Z,18.30
